Time;durP1;ratioP1;P1;durP2;ratioP2;P2;SDS_P1;SDS_P2;PMS_P1;PMS_P2;Temp;Humidity;BMP_temperature;BMP_pressure;BME280_temperature;BME280_humidity;BME280_pressure;Samples;Min_cycle;Max_cycle;Signal;HPM_P1;HPM_P2
2022/09/09 00:13:40;;;;;;;5.90;1.70;;;19.10;90.80;;;;;;5075541;28;20046;-66
2022/09/09 01:07:00;;;;;;;9.32;2.22;;;19.00;90.80;;;;;;5016727;28;20530;-65
2022/09/09 01:20:34;;;;;;;3.50;1.42;;;18.90;90.80;;;;;;4952345;28;20108;-65
2022/09/09 02:08:09;;;;;;;5.47;1.88;;;18.80;90.80;;;;;;4990019;28;20120;-68
2022/09/09 02:53:03;;;;;;;5.15;1.25;;;18.70;90.70;;;;;;4905295;29;20035;-68
2022/09/09 03:46:22;;;;;;;5.15;1.27;;;18.60;90.70;;;;;;5076268;28;20040;-68
2022/09/09 04:02:22;;;;;;;4.05;1.33;;;18.60;90.60;;;;;;5073914;28;20417;-68
2022/09/09 04:04:50;;;;;;;2.25;1.20;;;18.70;90.60;;;;;;5054253;28;20020;-68
2022/09/09 04:17:41;;;;;;;10.40;1.48;;;18.70;90.60;;;;;;5075678;28;20035;-68
2022/09/09 04:20:16;;;;;;;2.17;1.42;;;18.70;90.60;;;;;;5070536;28;20071;-68
2022/09/09 04:22:51;;;;;;;2.75;1.20;;;18.70;90.60;;;;;;5050996;28;20834;-68
2022/09/09 04:25:19;;;;;;;1.33;1.08;;;18.70;90.60;;;;;;5047874;28;20020;-68
2022/09/09 04:38:14;;;;;;;3.17;1.30;;;18.70;90.70;;;;;;5074025;28;20426;-68
2022/09/09 04:51:06;;;;;;;1.85;1.35;;;18.70;90.70;;;;;;5053457;28;20107;-68
2022/09/09 04:53:34;;;;;;;2.97;1.30;;;18.70;90.70;;;;;;5064925;28;20029;-68
2022/09/09 04:56:08;;;;;;;1.95;1.20;;;18.70;90.70;;;;;;5069928;28;20063;-68
2022/09/09 04:58:34;;;;;;;2.15;1.20;;;18.70;90.70;;;;;;5053178;28;20020;-68
2022/09/09 05:01:08;;;;;;;6.95;1.38;;;18.70;90.70;;;;;;5069775;28;20028;-68
2022/09/09 05:03:33;;;;;;;5.32;2.05;;;18.70;90.70;;;;;;5071507;28;20104;-68
2022/09/09 05:06:06;;;;;;;10.95;1.30;;;18.70;90.70;;;;;;5070602;28;20550;-67
2022/09/09 05:08:32;;;;;;;2.58;1.35;;;18.70;90.70;;;;;;5053366;28;20381;-68
2022/09/09 05:10:59;;;;;;;4.05;1.13;;;18.70;90.70;;;;;;5070979;28;20499;-67
2022/09/09 05:13:27;;;;;;;2.53;1.23;;;18.80;90.70;;;;;;5070740;28;20012;-67
2022/09/09 05:19:18;;;;;;;4.57;1.38;;;18.70;90.70;;;;;;5106251;23;20051;-67
2022/09/09 05:21:44;;;;;;;2.47;1.07;;;18.70;91.10;;;;;;5090916;28;20027;-65
2022/09/09 05:24:10;;;;;;;2.90;1.83;;;18.70;90.70;;;;;;5071074;28;20028;-67
2022/09/09 05:26:36;;;;;;;6.78;0.95;;;18.80;90.70;;;;;;5089486;28;20023;-68
2022/09/09 05:29:01;;;;;;;3.05;1.42;;;18.70;90.70;;;;;;5090456;28;20374;-65
2022/09/09 05:31:30;;;;;;;9.55;1.75;;;18.80;90.70;;;;;;5088514;28;20099;-66
2022/09/09 05:33:55;;;;;;;3.25;1.30;;;18.80;90.70;;;;;;5090189;28;20090;-66
2022/09/09 05:36:23;;;;;;;3.80;1.13;;;18.70;90.70;;;;;;5089801;28;20508;-66
2022/09/09 05:38:49;;;;;;;2.88;1.60;;;18.80;90.70;;;;;;5090276;28;20020;-65
2022/09/09 05:41:16;;;;;;;4.45;1.00;;;18.70;90.70;;;;;;5090141;28;20028;-66
2022/09/09 05:43:46;;;;;;;3.20;1.23;;;18.80;90.70;;;;;;5089933;28;20065;-66
2022/09/09 05:46:14;;;;;;;4.55;1.70;;;18.80;90.70;;;;;;5088921;28;20282;-66
2022/09/09 05:48:42;;;;;;;5.93;1.50;;;18.80;90.80;;;;;;5090842;28;20115;-65
2022/09/09 05:51:15;;;;;;;4.75;1.40;;;18.80;90.80;;;;;;5090341;28;20032;-66
2022/09/09 05:53:41;;;;;;;5.72;1.65;;;18.80;90.80;;;;;;5090377;28;20024;-66
2022/09/09 05:56:15;;;;;;;6.22;1.40;;;18.80;90.80;;;;;;5089641;28;20461;-66
2022/09/09 05:58:45;;;;;;;5.10;1.48;;;18.80;90.80;;;;;;5090329;28;20020;-66
2022/09/09 06:01:26;;;;;;;7.05;1.30;;;18.80;90.80;;;;;;5090062;28;20027;-66
2022/09/09 06:03:52;;;;;;;;;;;18.80;90.80;;;;;;5085879;28;20024;-66
2022/09/09 06:06:25;;;;;;;2.67;1.42;;;18.80;90.80;;;;;;5089273;28;19904;-66
2022/09/09 06:08:52;;;;;;;3.22;1.40;;;18.80;90.80;;;;;;5089865;28;20119;-67
2022/09/09 06:11:23;;;;;;;8.10;1.45;;;18.80;90.80;;;;;;5090034;28;20027;-66
2022/09/09 06:13:53;;;;;;;5.93;1.30;;;18.80;90.80;;;;;;5090105;28;20028;-66
2022/09/09 06:16:20;;;;;;;2.75;1.17;;;18.80;90.80;;;;;;5089777;28;20445;-66
2022/09/09 06:18:47;;;;;;;4.00;1.40;;;18.80;90.80;;;;;;5093061;28;20501;-66
2022/09/09 06:21:27;;;;;;;5.50;1.42;;;18.80;90.80;;;;;;5098540;28;20107;-66
2022/09/09 06:23:53;;;;;;;2.72;1.35;;;18.80;90.80;;;;;;5099054;28;20021;-66
2022/09/09 06:26:26;;;;;;;1.70;1.20;;;18.80;90.90;;;;;;5100338;28;20024;-66
2022/09/09 06:28:55;;;;;;;3.13;1.30;;;18.80;90.90;;;;;;5102274;28;20093;-66
2022/09/09 06:31:23;;;;;;;3.90;1.35;;;18.80;90.90;;;;;;5100985;28;20526;-67
2022/09/09 06:33:50;;;;;;;1.42;1.20;;;18.80;90.90;;;;;;5109171;28;20028;-66
2022/09/09 06:36:24;;;;;;;2.20;1.20;;;18.80;90.90;;;;;;5101245;28;20094;-66
2022/09/09 06:38:50;;;;;;;2.00;1.40;;;18.80;90.90;;;;;;5102024;28;20484;-66
2022/09/09 06:41:18;;;;;;;3.00;1.10;;;18.80;90.90;;;;;;5083546;28;20027;-66
2022/09/09 06:43:44;;;;;;;7.05;1.40;;;18.90;90.90;;;;;;5083459;28;20357;-67
2022/09/09 06:46:11;;;;;;;3.97;1.10;;;18.90;90.90;;;;;;5100562;28;20043;-66
2022/09/09 06:48:40;;;;;;;6.38;1.40;;;18.90;90.90;;;;;;5108825;28;20026;-66
2022/09/09 06:51:07;;;;;;;1.48;1.05;;;18.90;90.90;;;;;;5101472;28;20016;-67
2022/09/09 06:53:34;;;;;;;8.13;1.10;;;18.90;90.90;;;;;;5098110;28;20054;-66
2022/09/09 06:56:10;;;;;;;1.30;1.02;;;18.90;90.90;;;;;;5097588;28;20454;-66
2022/09/09 06:58:42;;;;;;;1.58;1.00;;;18.90;90.90;;;;;;5101294;28;20314;-66
2022/09/09 07:01:09;;;;;;;4.45;1.25;;;19.00;90.90;;;;;;5083560;28;20028;-66
2022/09/09 07:03:35;;;;;;;4.85;1.25;;;19.00;90.80;;;;;;5085354;28;20024;-66
2022/09/09 07:06:01;;;;;;;3.28;1.40;;;19.00;90.80;;;;;;5101086;28;20072;-66
2022/09/09 07:08:28;;;;;;;3.53;1.23;;;19.00;90.80;;;;;;5098711;28;20019;-66
2022/09/09 07:10:54;;;;;;;2.58;1.10;;;19.10;90.80;;;;;;5097456;28;20491;-67
2022/09/09 07:13:27;;;;;;;1.05;0.85;;;19.10;90.80;;;;;;5082882;28;20032;-66
2022/09/09 07:15:52;;;;;;;4.28;1.38;;;19.20;90.90;;;;;;5103775;28;20558;-66
2022/09/09 07:18:19;;;;;;;2.10;1.20;;;19.20;90.90;;;;;;5090725;28;20035;-66
2022/09/09 07:20:54;;;;;;;4.10;1.30;;;19.30;90.90;;;;;;5113194;28;20027;-66
2022/09/09 07:23:20;;;;;;;2.72;1.30;;;19.30;90.90;;;;;;5094775;28;20031;-66
2022/09/09 07:25:47;;;;;;;3.17;1.40;;;19.40;90.90;;;;;;5113062;28;20031;-66
2022/09/09 07:28:13;;;;;;;4.53;1.08;;;19.50;91.00;;;;;;5094585;28;20056;-66
2022/09/09 07:30:39;;;;;;;3.90;1.27;;;19.50;91.00;;;;;;5113051;28;20083;-66
2022/09/09 07:33:05;;;;;;;2.03;1.08;;;19.50;91.10;;;;;;5093628;28;20020;-66
2022/09/09 07:35:31;;;;;;;2.70;1.10;;;19.60;91.10;;;;;;5094114;28;20412;-67
2022/09/09 07:37:57;;;;;;;4.88;1.23;;;19.70;91.20;;;;;;5094406;28;20027;-66
2022/09/09 07:40:23;;;;;;;3.55;1.00;;;19.70;91.10;;;;;;5113129;28;20024;-66
2022/09/09 07:42:49;;;;;;;2.92;1.33;;;19.80;91.10;;;;;;5112957;28;20376;-66
2022/09/09 07:45:14;;;;;;;9.05;1.65;;;19.80;91.00;;;;;;5094467;28;20019;-66
2022/09/09 07:47:42;;;;;;;4.07;1.20;;;19.90;90.90;;;;;;5094767;27;20073;-66
2022/09/09 07:50:09;;;;;;;2.15;1.20;;;20.00;90.90;;;;;;5126774;27;20035;-67
2022/09/09 07:52:35;;;;;;;1.83;1.15;;;20.00;90.90;;;;;;5092528;28;20417;-66
2022/09/09 07:55:04;;;;;;;3.28;1.30;;;20.00;90.70;;;;;;5093633;28;20020;-66
2022/09/09 07:57:30;;;;;;;2.00;1.38;;;20.10;90.70;;;;;;5110953;28;20579;-67
2022/09/09 07:59:56;;;;;;;2.55;1.10;;;20.10;90.60;;;;;;5121382;27;20066;-66
2022/09/09 08:02:23;;;;;;;4.97;1.48;;;20.20;90.60;;;;;;5102444;28;20390;-67
2022/09/09 08:04:49;;;;;;;1.95;1.17;;;20.20;90.60;;;;;;5112222;28;20031;-66
2022/09/09 08:07:16;;;;;;;4.88;1.60;;;20.20;90.50;;;;;;5120217;27;20029;-66
2022/09/09 08:09:41;;;;;;;4.38;1.40;;;20.20;90.50;;;;;;5121923;27;20024;-66
2022/09/09 08:12:18;;;;;;;7.30;1.48;;;20.30;90.50;;;;;;5127993;27;20455;-66
2022/09/09 08:14:43;;;;;;;12.57;1.58;;;20.30;90.50;;;;;;5102192;28;20028;-66
2022/09/09 08:17:09;;;;;;;4.82;1.70;;;20.30;90.50;;;;;;5117594;27;20114;-67
2022/09/09 08:19:35;;;;;;;5.50;1.50;;;20.30;90.50;;;;;;5113046;27;20131;-66
2022/09/09 08:22:02;;;;;;;5.45;1.95;;;20.40;90.50;;;;;;5109483;28;20023;-66
2022/09/09 08:24:28;;;;;;;4.25;2.20;;;20.40;90.40;;;;;;5103738;27;20028;-67
2022/09/09 08:26:54;;;;;;;3.25;1.92;;;20.50;90.40;;;;;;5098303;28;20127;-66
2022/09/09 08:29:20;;;;;;;2.45;1.90;;;20.50;90.40;;;;;;5109014;28;20020;-66
2022/09/09 08:31:54;;;;;;;5.05;2.15;;;20.50;90.30;;;;;;5092714;28;20040;-66
2022/09/09 08:34:20;;;;;;;3.10;2.20;;;20.50;90.30;;;;;;5111515;28;20036;-66
2022/09/09 08:36:49;;;;;;;4.43;1.90;;;20.60;90.30;;;;;;5119838;27;20165;-66
2022/09/09 08:39:18;;;;;;;3.13;1.80;;;20.50;90.20;;;;;;5102216;28;20020;-66
2022/09/09 08:41:50;;;;;;;3.80;1.88;;;20.60;90.30;;;;;;5113973;27;20457;-68
2022/09/09 08:44:28;;;;;;;2.90;1.67;;;20.60;90.20;;;;;;5112316;27;20020;-66
2022/09/09 08:47:35;;;;;;;5.38;1.80;;;20.60;90.10;;;;;;5102979;28;20422;-66
2022/09/09 08:50:24;;;;;;;8.32;1.70;;;20.70;90.10;;;;;;5084089;27;20036;-67
2022/09/09 08:53:08;;;;;;;4.00;1.40;;;20.70;90.00;;;;;;5120809;27;20023;-66
2022/09/09 08:55:41;;;;;;;2.65;1.48;;;20.80;90.10;;;;;;5120158;27;20026;-66
2022/09/09 08:58:11;;;;;;;1.58;1.48;;;20.80;90.00;;;;;;5108689;27;20027;-66
2022/09/09 09:00:52;;;;;;;1.55;1.30;;;20.80;90.00;;;;;;5122029;27;20020;-66
2022/09/09 09:03:55;;;;;;;2.97;1.08;;;20.80;89.90;;;;;;5122340;27;20043;-66
2022/09/09 09:06:39;;;;;;;3.53;1.35;;;20.80;89.80;;;;;;5105533;27;20383;-66
2022/09/09 09:09:34;;;;;;;1.63;1.00;;;20.90;89.70;;;;;;5095149;28;20395;-67
2022/09/09 09:12:02;;;;;;;2.60;1.10;;;20.90;89.70;;;;;;5112614;27;20027;-66
2022/09/09 09:14:30;;;;;;;4.60;1.10;;;21.00;89.80;;;;;;5119885;27;20008;-66
2022/09/09 09:17:01;;;;;;;3.58;1.23;;;20.90;89.70;;;;;;5110951;27;20407;-66
2022/09/09 09:19:31;;;;;;;2.53;1.10;;;20.90;89.60;;;;;;5087083;28;20040;-67
2022/09/09 09:22:03;;;;;;;4.63;1.20;;;20.90;89.50;;;;;;5111261;27;20047;-66
2022/09/09 09:24:50;;;;;;;4.18;1.00;;;20.90;89.70;;;;;;5119952;27;20050;-66
2022/09/09 09:27:31;;;;;;;7.18;1.52;;;20.90;89.70;;;;;;5113733;27;20308;-66
2022/09/09 09:39:56;;;;;;;4.93;1.08;;;20.90;89.40;;;;;;5050460;28;20442;-66
2022/09/09 09:42:30;;;;;;;6.03;1.20;;;21.00;89.50;;;;;;5051497;28;20033;-66
2022/09/09 09:44:56;;;;;;;5.53;1.45;;;20.90;89.40;;;;;;5079488;28;20051;-66
2022/09/09 09:47:23;;;;;;;2.85;1.13;;;20.90;89.50;;;;;;5079098;28;20040;-66
2022/09/09 09:50:19;;;;;;;1.30;0.80;;;20.90;89.50;;;;;;5076140;28;20031;-67
2022/09/09 09:52:57;;;;;;;5.43;1.33;;;20.90;89.60;;;;;;5066863;28;20043;-66
2022/09/09 09:55:24;;;;;;;4.82;1.10;;;20.90;89.60;;;;;;5079488;28;20049;-66
2022/09/09 09:57:50;;;;;;;8.32;1.05;;;20.80;89.60;;;;;;5078151;28;20048;-66
2022/09/09 10:00:17;;;;;;;3.58;0.93;;;20.80;89.60;;;;;;5079283;28;20099;-66
2022/09/09 10:02:44;;;;;;;4.13;1.15;;;20.80;89.60;;;;;;5059570;28;20032;-66
2022/09/09 10:05:20;;;;;;;4.32;1.17;;;20.80;89.70;;;;;;5123214;27;20028;-67
2022/09/09 10:07:47;;;;;;;4.50;1.00;;;20.80;89.70;;;;;;5119481;27;20276;-66
2022/09/09 10:20:14;;;;;;;1.33;0.77;;;20.70;89.80;;;;;;5072967;28;20456;-67
2022/09/09 10:22:45;;;;;;;2.45;1.67;;;20.70;89.90;;;;;;5078974;28;20032;-67
2022/09/09 10:25:20;;;;;;;4.85;1.17;;;20.70;89.90;;;;;;5080366;28;20069;-67
2022/09/09 10:27:54;;;;;;;3.05;0.90;;;20.70;89.90;;;;;;5076696;28;20416;-66
2022/09/09 10:30:23;;;;;;;4.65;1.20;;;20.70;89.90;;;;;;5073531;28;20021;-66
2022/09/09 10:33:27;;;;;;;5.77;1.17;;;20.70;90.00;;;;;;5060008;28;20167;-66
2022/09/09 10:36:14;;;;;;;0.80;0.80;;;20.60;90.00;;;;;;5075855;28;20036;-66
2022/09/09 10:38:43;;;;;;;2.58;0.93;;;20.60;90.00;;;;;;5084088;28;20044;-67
2022/09/09 10:41:39;;;;;;;8.23;1.30;;;20.60;90.00;;;;;;5063419;28;20445;-66
2022/09/09 10:44:49;;;;;;;2.78;1.17;;;20.60;90.00;;;;;;5075185;28;20024;-67
2022/09/09 10:51:31;;;;;;;4.43;0.98;;;20.50;90.00;;;;;;5092367;28;20073;-66
2022/09/09 10:54:40;;;;;;;3.95;1.00;;;20.60;90.10;;;;;;5095562;28;20028;-67
2022/09/09 10:57:23;;;;;;;3.97;1.40;;;20.50;90.00;;;;;;5092983;28;20050;-66
2022/09/09 10:59:53;;;;;;;3.25;0.85;;;20.50;90.00;;;;;;5075475;28;20073;-66
2022/09/09 11:02:28;;;;;;;4.57;1.05;;;20.50;90.00;;;;;;5086676;28;20024;-67
2022/09/09 11:05:06;;;;;;;3.83;0.77;;;20.50;90.00;;;;;;5091388;28;20028;-67
2022/09/09 11:07:40;;;;;;;1.40;0.85;;;20.50;90.00;;;;;;5087877;28;20023;-67
2022/09/09 11:10:21;;;;;;;2.53;1.00;;;20.50;90.00;;;;;;5093497;28;20058;-67
2022/09/09 11:12:51;;;;;;;1.48;0.80;;;20.50;90.00;;;;;;5093315;28;20114;-67
2022/09/09 11:15:37;;;;;;;3.40;1.00;;;20.50;90.10;;;;;;5083477;28;20116;-66
2022/09/09 11:18:06;;;;;;;5.78;1.20;;;20.40;90.10;;;;;;5060786;28;20044;-66
2022/09/09 11:26:35;;;;;;;2.50;0.82;;;20.40;90.00;;;;;;1248417;26;20051;-66
2022/09/09 11:29:23;;;;;;;3.05;1.00;;;20.50;90.10;;;;;;5083830;28;20040;-66
2022/09/09 11:32:01;;;;;;;2.08;0.90;;;20.50;90.10;;;;;;5101877;28;20032;-65
2022/09/09 11:34:43;;;;;;;0.70;0.70;;;20.50;90.10;;;;;;5089642;28;20035;-66
2022/09/09 11:37:11;;;;;;;2.50;0.82;;;20.50;90.10;;;;;;5054638;28;20055;-66
2022/09/09 11:39:41;;;;;;;5.22;0.98;;;20.50;90.10;;;;;;5079025;28;20044;-66
2022/09/09 11:42:13;;;;;;;0.77;0.60;;;20.40;90.10;;;;;;5094969;28;20082;-65
2022/09/09 11:44:56;;;;;;;4.88;0.80;;;20.40;90.10;;;;;;5101669;28;20024;-66
2022/09/09 11:47:29;;;;;;;2.17;0.82;;;20.40;90.20;;;;;;5093768;28;20530;-66
2022/09/09 11:50:08;;;;;;;1.10;0.73;;;20.40;90.20;;;;;;5073296;28;20032;-66
2022/09/09 11:52:42;;;;;;;6.57;1.00;;;20.40;90.20;;;;;;5068230;28;20032;-66
2022/09/09 11:55:26;;;;;;;1.45;0.80;;;20.40;90.30;;;;;;5114975;28;20110;-66
2022/09/09 11:57:59;;;;;;;4.25;0.90;;;20.40;90.20;;;;;;5078960;28;20039;-65
2022/09/09 12:00:46;;;;;;;1.63;0.70;;;20.40;90.20;;;;;;5063958;28;20063;-66
2022/09/09 12:03:35;;;;;;;1.65;0.95;;;20.40;90.20;;;;;;5087313;28;20097;-66
2022/09/09 12:06:17;;;;;;;3.42;0.93;;;20.50;90.20;;;;;;5103173;28;20016;-65
2022/09/09 12:08:46;;;;;;;1.08;0.68;;;20.40;90.20;;;;;;5099726;28;20024;-66
2022/09/09 12:11:32;;;;;;;9.35;1.13;;;20.50;90.30;;;;;;5102670;28;20016;-66
2022/09/09 12:14:03;;;;;;;2.33;0.95;;;20.50;90.30;;;;;;5083779;28;20043;-67
2022/09/09 12:16:38;;;;;;;6.53;0.80;;;20.50;90.30;;;;;;5093254;28;20032;-66
2022/09/09 12:19:21;;;;;;;1.70;0.70;;;20.50;90.30;;;;;;5093739;28;20024;-66
2022/09/09 12:21:53;;;;;;;3.88;0.70;;;20.50;90.30;;;;;;5101432;28;20027;-65
2022/09/09 12:25:08;;;;;;;4.78;0.98;;;20.50;90.30;;;;;;5082840;28;20051;-65
2022/09/09 12:27:42;;;;;;;0.73;0.73;;;20.50;90.30;;;;;;4970243;28;20042;-65
2022/09/09 12:30:15;;;;;;;0.77;0.77;;;20.50;90.30;;;;;;4992183;28;20026;-65
2022/09/09 12:32:49;;;;;;;1.70;0.80;;;20.50;90.30;;;;;;4993544;28;20042;-66
2022/09/09 12:35:31;;;;;;;4.15;0.95;;;20.50;90.40;;;;;;4989683;28;20318;-66
2022/09/09 12:38:07;;;;;;;1.52;0.63;;;20.50;90.40;;;;;;4989861;28;20140;-65
2022/09/09 12:40:39;;;;;;;2.28;0.88;;;20.50;90.40;;;;;;4996784;28;20029;-65
2022/09/09 12:43:32;;;;;;;3.65;1.00;;;20.50;90.80;;;;;;4992716;28;20086;-66
2022/09/09 12:46:08;;;;;;;2.15;0.93;;;20.50;90.50;;;;;;4993110;28;20379;-66
2022/09/09 12:48:52;;;;;;;3.10;0.68;;;20.50;90.50;;;;;;5010874;28;20129;-66
2022/09/09 12:51:34;;;;;;;1.17;0.73;;;20.40;90.50;;;;;;5002119;28;20057;-65
2022/09/09 13:00:58;;;;;;;0.95;0.80;;;20.40;90.50;;;;;;5012893;28;20049;-65
2022/09/09 13:03:42;;;;;;;1.95;0.88;;;20.40;90.50;;;;;;5029345;28;20434;-65
2022/09/09 13:06:17;;;;;;;0.68;0.60;;;20.40;90.40;;;;;;5063517;28;20040;-65
2022/09/09 13:08:43;;;;;;;10.40;1.55;;;20.40;90.40;;;;;;5080565;28;20546;-65
2022/09/09 13:11:21;;;;;;;1.05;0.88;;;20.40;90.40;;;;;;5083082;28;20024;-65
2022/09/09 13:18:01;;;;;;;2.53;0.90;;;20.40;90.30;;;;;;5114095;28;20074;-65
2022/09/09 13:20:34;;;;;;;2.00;0.75;;;20.40;90.20;;;;;;5092891;28;20028;-65
2022/09/09 13:29:55;;;;;;;0.70;0.70;;;20.40;90.00;;;;;;5014257;28;20537;-65
2022/09/09 13:32:24;;;;;;;1.05;0.70;;;20.30;90.00;;;;;;5044371;28;20547;-65
2022/09/09 13:34:58;;;;;;;0.85;0.80;;;20.40;90.00;;;;;;5029624;28;20034;-65
2022/09/09 13:37:38;;;;;;;1.63;0.68;;;20.40;90.00;;;;;;5034158;28;20055;-65
2022/09/09 13:40:06;;;;;;;1.52;1.00;;;20.40;90.00;;;;;;5040592;28;20039;-65
2022/09/09 13:45:38;;;;;;;2.95;0.90;;;20.40;90.00;;;;;;5034350;28;20047;-65
2022/09/09 13:48:10;;;;;;;2.22;0.70;;;20.50;88.70;;;;;;5037904;28;20029;-65
2022/09/09 13:50:36;;;;;;;3.40;0.73;;;20.40;87.90;;;;;;5017356;28;20393;-65
2022/09/09 13:53:01;;;;;;;1.52;0.73;;;20.50;86.90;;;;;;5030444;28;20125;-65
2022/09/09 13:55:28;;;;;;;1.55;0.70;;;20.50;86.90;;;;;;5041267;28;20108;-65
2022/09/09 13:58:02;;;;;;;2.42;0.80;;;20.40;86.30;;;;;;5101108;28;20027;-66
2022/09/09 14:00:33;;;;;;;1.58;0.80;;;20.40;86.00;;;;;;5099738;28;20095;-66
2022/09/09 14:03:02;;;;;;;2.53;1.00;;;20.40;85.30;;;;;;5099021;28;20024;-66
2022/09/09 14:05:29;;;;;;;6.72;0.95;;;20.40;84.80;;;;;;5096879;28;20332;-65
2022/09/09 14:07:55;;;;;;;2.45;0.93;;;20.40;84.10;;;;;;5087464;28;20086;-65
2022/09/09 14:10:22;;;;;;;3.50;1.10;;;20.40;84.20;;;;;;5093141;28;20052;-65
2022/09/09 14:12:47;;;;;;;2.50;1.10;;;20.50;83.70;;;;;;5091218;28;20042;-65
2022/09/09 14:15:14;;;;;;;1.95;0.80;;;20.40;83.80;;;;;;5091553;28;20428;-65
2022/09/09 14:17:39;;;;;;;3.45;1.00;;;20.50;84.00;;;;;;5090889;28;20040;-65
2022/09/09 14:20:09;;;;;;;2.92;0.80;;;20.40;83.60;;;;;;5097791;28;20119;-65
2022/09/09 14:22:35;;;;;;;0.50;0.45;;;20.40;83.60;;;;;;5094384;28;20024;-65
2022/09/09 14:25:02;;;;;;;5.05;0.70;;;20.40;83.40;;;;;;5076889;28;20055;-65
2022/09/09 14:27:28;;;;;;;2.85;1.27;;;20.40;83.00;;;;;;5087149;28;20020;-65
2022/09/09 14:29:54;;;;;;;4.72;1.10;;;20.40;83.30;;;;;;5087704;28;20036;-65
2022/09/09 14:32:20;;;;;;;1.52;0.90;;;20.30;83.40;;;;;;5091738;28;20028;-65
2022/09/09 14:34:49;;;;;;;1.00;0.82;;;20.30;83.40;;;;;;5091698;28;20031;-65
2022/09/09 14:37:16;;;;;;;0.80;0.80;;;20.30;83.50;;;;;;5087523;28;20046;-65
2022/09/09 14:39:43;;;;;;;3.88;0.88;;;20.30;83.40;;;;;;5088646;28;20012;-65
2022/09/09 14:42:12;;;;;;;3.83;0.55;;;20.30;83.50;;;;;;5096786;28;20027;-65
2022/09/09 14:44:38;;;;;;;1.88;0.80;;;20.30;83.60;;;;;;5098253;28;20507;-65
2022/09/09 14:47:08;;;;;;;3.33;0.98;;;20.30;83.50;;;;;;5097672;28;20056;-65
2022/09/09 14:49:34;;;;;;;2.22;0.95;;;20.30;83.20;;;;;;5099312;28;20476;-65
2022/09/09 14:52:00;;;;;;;1.65;0.70;;;20.40;83.30;;;;;;5094127;28;20028;-65
2022/09/09 14:54:26;;;;;;;1.63;0.77;;;20.40;83.40;;;;;;5100480;28;20027;-65
2022/09/09 14:56:52;;;;;;;2.55;0.63;;;20.30;83.50;;;;;;5097181;28;20127;-65
2022/09/09 14:59:17;;;;;;;3.13;0.88;;;20.40;83.40;;;;;;5098324;28;20035;-65
2022/09/09 15:01:43;;;;;;;3.65;0.77;;;20.30;84.10;;;;;;5101640;28;20016;-65
2022/09/09 15:04:12;;;;;;;3.08;0.70;;;20.40;83.60;;;;;;5101539;28;20099;-65
2022/09/09 15:06:39;;;;;;;1.60;0.75;;;20.40;83.30;;;;;;5092860;28;20035;-65
2022/09/09 15:09:04;;;;;;;7.28;0.88;;;20.30;83.10;;;;;;5092686;28;20081;-65
2022/09/09 15:11:37;;;;;;;1.92;0.90;;;20.40;83.10;;;;;;5099264;28;20107;-65
2022/09/09 15:14:07;;;;;;;1.65;0.98;;;20.40;83.10;;;;;;5101508;28;20047;-65
2022/09/09 15:16:33;;;;;;;4.25;0.95;;;20.30;83.10;;;;;;5098364;28;20582;-65
2022/09/09 15:19:00;;;;;;;1.88;0.85;;;20.40;83.30;;;;;;5097937;28;20115;-65
2022/09/09 15:21:28;;;;;;;1.17;0.73;;;20.30;83.20;;;;;;5097434;28;20031;-65
2022/09/09 15:23:55;;;;;;;4.93;0.90;;;20.40;83.20;;;;;;5096701;28;20515;-65
2022/09/09 15:26:20;;;;;;;2.33;0.88;;;20.30;83.00;;;;;;5097021;28;20032;-65
2022/09/09 15:28:47;;;;;;;2.83;1.08;;;20.30;83.10;;;;;;5101232;28;20516;-65
2022/09/09 15:31:22;;;;;;;2.13;0.70;;;20.30;83.10;;;;;;5101461;28;20392;-65
2022/09/09 15:34:00;;;;;;;2.80;0.80;;;20.30;82.60;;;;;;5110635;28;20480;-65
2022/09/09 15:36:27;;;;;;;5.47;0.90;;;20.30;82.50;;;;;;5110372;28;20066;-65
2022/09/09 15:38:52;;;;;;;3.15;1.33;;;20.30;82.30;;;;;;5089106;28;20035;-66
2022/09/09 15:41:20;;;;;;;1.30;0.80;;;20.30;82.50;;;;;;5092553;28;20055;-65
2022/09/09 15:43:49;;;;;;;0.82;0.80;;;20.30;82.50;;;;;;5096286;28;20023;-65
2022/09/09 15:46:24;;;;;;;3.72;0.88;;;20.30;81.80;;;;;;5101196;28;20400;-65
2022/09/09 15:48:50;;;;;;;1.73;0.70;;;20.30;81.90;;;;;;5092467;28;20129;-65
2022/09/09 15:51:16;;;;;;;0.75;0.65;;;20.30;81.60;;;;;;5081967;28;20127;-65
2022/09/09 15:53:42;;;;;;;2.22;1.05;;;20.30;81.70;;;;;;5092259;28;20115;-65
2022/09/09 15:56:08;;;;;;;2.40;0.68;;;20.30;81.70;;;;;;5096859;28;20083;-65
2022/09/09 15:58:35;;;;;;;3.55;1.02;;;20.30;81.70;;;;;;5102436;28;20089;-65
2022/09/09 16:01:07;;;;;;;1.15;0.70;;;20.30;81.70;;;;;;5101232;28;20066;-65
2022/09/09 16:03:36;;;;;;;1.38;0.70;;;20.30;81.50;;;;;;5095496;28;20110;-65
2022/09/09 16:06:04;;;;;;;1.73;0.70;;;20.30;81.40;;;;;;5103330;28;20406;-65
2022/09/09 16:08:34;;;;;;;1.23;0.52;;;20.30;81.30;;;;;;5096140;28;20023;-65
2022/09/09 16:11:12;;;;;;;1.65;0.82;;;20.30;81.30;;;;;;5100906;28;20542;-65
2022/09/09 16:13:41;;;;;;;0.73;0.70;;;20.30;81.30;;;;;;5094615;28;20066;-65
2022/09/09 16:16:09;;;;;;;4.75;0.80;;;20.20;81.10;;;;;;5102503;28;20492;-65
2022/09/09 16:18:57;;;;;;;1.80;0.90;;;20.30;82.00;;;;;;5103115;28;20043;-65
2022/09/09 16:21:28;;;;;;;1.55;0.50;;;20.20;80.90;;;;;;5098931;28;20026;-65
2022/09/09 16:23:54;;;;;;;2.28;0.73;;;20.20;81.20;;;;;;5090679;28;20035;-65
2022/09/09 16:26:21;;;;;;;1.02;0.60;;;20.20;80.30;;;;;;5103225;28;20034;-65
2022/09/09 16:28:47;;;;;;;1.83;0.60;;;20.20;80.30;;;;;;5083268;28;20354;-65
2022/09/09 16:31:17;;;;;;;2.65;0.68;;;20.20;80.10;;;;;;5099513;28;20074;-65
2022/09/09 16:33:43;;;;;;;1.02;0.63;;;20.20;79.90;;;;;;5083485;28;20210;-65
2022/09/09 16:36:12;;;;;;;1.25;0.75;;;20.20;79.90;;;;;;5094745;28;20093;-65
2022/09/09 16:38:38;;;;;;;1.45;0.60;;;20.20;79.70;;;;;;5095829;28;20089;-65
2022/09/09 16:41:06;;;;;;;1.20;0.68;;;20.20;79.50;;;;;;5094755;28;20035;-65
2022/09/09 16:43:36;;;;;;;3.72;1.17;;;20.20;79.20;;;;;;5102328;28;20023;-65
2022/09/09 16:46:04;;;;;;;5.03;1.58;;;20.10;79.00;;;;;;5082431;28;20055;-66
2022/09/09 16:48:33;;;;;;;5.18;0.60;;;20.10;78.80;;;;;;5099773;28;20028;-65
2022/09/09 16:51:06;;;;;;;5.00;0.60;;;20.10;78.60;;;;;;5086278;28;20480;-65
2022/09/09 16:53:33;;;;;;;2.15;1.00;;;20.10;78.60;;;;;;5104498;28;20035;-66
2022/09/09 16:56:08;;;;;;;3.85;1.27;;;20.10;78.40;;;;;;5095737;28;20019;-65
2022/09/09 16:58:34;;;;;;;6.50;0.77;;;20.10;78.40;;;;;;5089292;28;20082;-66
2022/09/09 17:01:03;;;;;;;2.72;0.60;;;20.10;78.40;;;;;;5079037;28;20016;-65
2022/09/09 17:03:31;;;;;;;0.55;0.55;;;20.10;78.10;;;;;;5078453;28;20024;-65
2022/09/09 17:05:57;;;;;;;0.75;0.60;;;20.10;78.10;;;;;;5095883;28;20060;-65
2022/09/09 17:08:23;;;;;;;2.78;0.50;;;20.10;77.90;;;;;;5094237;28;20161;-65
2022/09/09 17:10:49;;;;;;;0.98;0.50;;;20.00;77.80;;;;;;5076804;28;20032;-65
2022/09/09 17:13:16;;;;;;;0.85;0.50;;;20.00;77.60;;;;;;5097476;28;20452;-65
2022/09/09 17:15:42;;;;;;;1.15;0.77;;;20.00;77.50;;;;;;5096800;28;20027;-65
2022/09/09 17:18:10;;;;;;;2.83;0.75;;;20.00;77.60;;;;;;5089899;28;20048;-64
2022/09/09 17:20:41;;;;;;;2.60;0.65;;;20.00;77.60;;;;;;5100843;28;20031;-65
2022/09/09 17:23:10;;;;;;;4.45;0.70;;;20.00;77.40;;;;;;5100137;28;20460;-65
2022/09/09 17:25:36;;;;;;;1.23;0.90;;;20.00;77.40;;;;;;5103855;28;20483;-65
2022/09/09 17:28:06;;;;;;;2.85;0.60;;;20.00;77.30;;;;;;5100245;28;20031;-65
2022/09/09 17:30:36;;;;;;;1.73;0.60;;;19.90;76.90;;;;;;5102054;28;20118;-65
2022/09/09 17:33:03;;;;;;;1.23;0.70;;;19.90;76.50;;;;;;5098595;28;20028;-65
2022/09/09 17:35:29;;;;;;;3.75;0.75;;;19.90;76.10;;;;;;5099318;28;20032;-65
2022/09/09 17:37:56;;;;;;;0.93;0.60;;;19.90;75.80;;;;;;5076188;28;20056;-65
2022/09/09 17:40:22;;;;;;;4.15;0.93;;;19.90;75.20;;;;;;5100265;28;20024;-64
2022/09/09 17:42:48;;;;;;;1.45;0.60;;;19.90;74.90;;;;;;5101214;28;20059;-65
2022/09/09 17:45:15;;;;;;;0.90;0.68;;;19.90;74.80;;;;;;5098838;28;20448;-64
2022/09/09 17:47:42;;;;;;;4.95;0.63;;;19.90;74.70;;;;;;5097344;28;20016;-65
2022/09/09 17:50:08;;;;;;;1.95;0.70;;;19.90;74.50;;;;;;5097625;28;20467;-64
2022/09/09 17:52:34;;;;;;;4.82;0.90;;;19.80;74.10;;;;;;5102057;28;20484;-64
2022/09/09 17:55:00;;;;;;;1.30;0.73;;;19.80;74.10;;;;;;5090317;28;20089;-64
2022/09/09 17:57:26;;;;;;;1.10;0.65;;;19.80;74.00;;;;;;5096614;28;20500;-65
2022/09/09 17:59:51;;;;;;;0.50;0.50;;;19.80;73.90;;;;;;5073256;28;20021;-64
2022/09/09 18:02:17;;;;;;;1.23;0.80;;;19.80;73.90;;;;;;5091468;28;20039;-64
2022/09/09 18:04:43;;;;;;;2.03;0.73;;;19.80;74.00;;;;;;5094774;28;20023;-64
2022/09/09 18:07:08;;;;;;;4.50;0.80;;;19.80;74.00;;;;;;5101057;28;20019;-64
2022/09/09 18:09:34;;;;;;;2.53;0.75;;;19.80;74.00;;;;;;5096105;28;20023;-65
2022/09/09 18:12:00;;;;;;;3.05;0.60;;;19.80;73.90;;;;;;5099431;28;20031;-64
2022/09/09 18:14:29;;;;;;;2.15;0.70;;;19.80;73.90;;;;;;5097937;28;20028;-64
2022/09/09 18:16:56;;;;;;;1.88;0.52;;;19.80;73.90;;;;;;5098246;28;20094;-65
2022/09/09 18:19:25;;;;;;;1.77;0.85;;;19.70;73.70;;;;;;5100637;28;20088;-64